createdAt,value
2023-03-28T00:02:15.745Z,3.40
2023-03-28T00:06:01.598Z,3.27
2023-03-28T00:09:44.670Z,3.30
2023-03-28T00:13:29.825Z,3.20
2023-03-28T00:17:12.619Z,3.33
2023-03-28T00:20:55.451Z,3.70
2023-03-28T00:24:38.958Z,3.67
2023-03-28T00:28:21.689Z,3.60
2023-03-28T00:32:06.358Z,3.63
2023-03-28T00:35:49.175Z,3.60
2023-03-28T00:39:31.910Z,3.60
2023-03-28T00:43:15.161Z,3.43
2023-03-28T00:46:57.961Z,3.90
2023-03-28T00:50:46.946Z,3.20
2023-03-28T00:54:33.146Z,3.40
2023-03-28T00:58:18.820Z,3.97
2023-03-28T01:02:01.831Z,3.83
2023-03-28T01:05:47.885Z,3.80
2023-03-28T01:09:30.931Z,4.27
2023-03-28T01:13:15.379Z,3.93
2023-03-28T01:16:58.114Z,4.50
2023-03-28T01:20:58.413Z,4.07
2023-03-28T01:25:20.884Z,4.60
2023-03-28T01:29:40.922Z,5.47
2023-03-28T01:33:48.031Z,4.73
2023-03-28T01:37:38.041Z,4.50
2023-03-28T01:41:24.883Z,5.20
2023-03-28T01:45:11.603Z,5.10
2023-03-28T01:48:58.986Z,5.27
2023-03-28T01:52:48.925Z,5.13
2023-03-28T01:56:37.837Z,5.37
2023-03-28T02:00:23.518Z,5.17
2023-03-28T02:04:20.478Z,5.07
2023-03-28T02:08:08.346Z,5.53
2023-03-28T02:11:54.238Z,5.30
2023-03-28T02:15:40.096Z,5.57
2023-03-28T02:19:25.039Z,5.87
2023-03-28T02:23:11.090Z,5.70
2023-03-28T02:26:56.285Z,5.53
2023-03-28T02:30:40.113Z,5.63
2023-03-28T02:34:22.826Z,6.20
2023-03-28T02:38:12.910Z,5.93
2023-03-28T02:42:15.882Z,6.10
2023-03-28T02:46:13.711Z,5.87
2023-03-28T02:50:03.363Z,5.90
2023-03-28T02:54:01.713Z,6.20
2023-03-28T02:57:47.145Z,6.17
2023-03-28T03:01:30.075Z,6.37
2023-03-28T03:05:13.881Z,6.57
2023-03-28T03:08:57.978Z,6.03
2023-03-28T03:12:41.541Z,6.00
2023-03-28T03:16:24.685Z,6.40
2023-03-28T03:20:08.716Z,6.00
2023-03-28T03:23:51.414Z,5.97
2023-03-28T03:27:36.776Z,6.10
2023-03-28T03:31:19.753Z,6.40
2023-03-28T03:35:02.575Z,6.30
2023-03-28T03:38:45.350Z,6.13
2023-03-28T03:42:28.066Z,5.70
2023-03-28T03:46:12.248Z,6.30
2023-03-28T03:49:55.212Z,6.37
2023-03-28T03:53:39.682Z,6.20
2023-03-28T03:57:22.552Z,6.40
2023-03-28T04:01:05.622Z,6.20
2023-03-28T04:04:49.693Z,6.80
2023-03-28T04:08:32.377Z,6.47
2023-03-28T04:12:15.019Z,6.50
2023-03-28T04:15:57.927Z,6.20
2023-03-28T04:19:41.502Z,6.30
2023-03-28T04:23:26.524Z,7.17
2023-03-28T04:27:09.785Z,7.17
2023-03-28T04:30:54.479Z,6.80
2023-03-28T04:34:39.091Z,6.43
2023-03-28T04:38:23.683Z,7.00
2023-03-28T04:42:08.656Z,7.00
2023-03-28T04:45:51.359Z,7.30
2023-03-28T04:49:34.057Z,6.47
2023-03-28T04:53:17.395Z,6.67
2023-03-28T04:57:00.154Z,6.67
2023-03-28T05:00:44.376Z,6.67
2023-03-28T05:04:27.926Z,7.47
2023-03-28T05:08:11.154Z,6.57
2023-03-28T05:11:53.828Z,7.10
2023-03-28T05:15:36.519Z,6.90
2023-03-28T05:19:20.884Z,6.90
2023-03-28T05:23:06.493Z,7.40
2023-03-28T05:26:49.168Z,6.67
2023-03-28T05:30:32.045Z,6.93
2023-03-28T05:34:14.654Z,7.13
2023-03-28T05:37:58.722Z,6.77
2023-03-28T05:41:41.387Z,7.33
2023-03-28T05:45:24.022Z,6.43
2023-03-28T05:49:06.642Z,6.80
2023-03-28T05:52:49.364Z,7.37
2023-03-28T05:56:35.695Z,6.53
2023-03-28T06:00:19.777Z,6.87
2023-03-28T06:04:02.474Z,6.60
2023-03-28T06:07:45.194Z,6.67
2023-03-28T06:11:28.266Z,6.60
2023-03-28T06:15:13.076Z,7.10
2023-03-28T06:19:03.995Z,6.07
2023-03-28T06:22:53.454Z,6.13
2023-03-28T06:26:36.117Z,6.13
2023-03-28T06:30:20.297Z,6.70
2023-03-28T06:34:02.996Z,6.77
2023-03-28T06:37:45.640Z,6.90
2023-03-28T06:41:28.323Z,6.20
2023-03-28T06:45:11.847Z,6.13
2023-03-28T06:48:55.978Z,5.27
2023-03-28T06:52:38.713Z,5.00
2023-03-28T06:56:21.391Z,4.90
2023-03-28T07:00:04.677Z,5.13
2023-03-28T07:03:48.751Z,5.37
2023-03-28T07:07:34.736Z,5.00
2023-03-28T07:11:17.369Z,5.23
2023-03-28T07:15:00.033Z,5.37
2023-03-28T07:18:42.700Z,5.00
2023-03-28T07:22:25.400Z,4.50
2023-03-28T07:26:10.961Z,4.53
2023-03-28T07:29:53.650Z,4.70
2023-03-28T07:33:38.259Z,4.33
2023-03-28T07:37:21.161Z,4.30
2023-03-28T07:41:04.459Z,4.03
2023-03-28T07:44:48.449Z,4.27
2023-03-28T07:48:31.703Z,3.90
2023-03-28T07:52:14.866Z,3.70
2023-03-28T07:55:57.505Z,3.40
2023-03-28T07:59:40.179Z,3.70
2023-03-28T08:03:24.511Z,3.40
2023-03-28T08:07:07.808Z,3.67
2023-03-28T08:10:51.418Z,4.03
2023-03-28T08:14:34.326Z,3.60
2023-03-28T08:18:20.887Z,3.00
2023-03-28T08:22:05.608Z,3.67
2023-03-28T08:25:48.278Z,3.40
2023-03-28T08:29:31.090Z,2.80
2023-03-28T08:33:13.895Z,3.40
2023-03-28T08:36:57.683Z,3.07
2023-03-28T08:40:48.417Z,3.00
2023-03-28T08:44:58.379Z,2.80
2023-03-28T08:48:43.139Z,3.33
2023-03-28T08:52:25.895Z,2.97
2023-03-28T08:56:10.922Z,3.20
2023-03-28T08:59:55.582Z,2.67
2023-03-28T09:03:38.320Z,2.80
2023-03-28T09:07:30.561Z,2.97
2023-03-28T09:11:23.070Z,3.07
2023-03-28T09:15:34.165Z,2.73
2023-03-28T09:19:36.939Z,2.63
2023-03-28T09:24:01.648Z,2.47
2023-03-28T09:27:50.527Z,1.80
2023-03-28T09:31:34.645Z,2.70
2023-03-28T09:35:19.356Z,2.40
2023-03-28T09:39:03.185Z,1.80
2023-03-28T09:42:53.202Z,2.00
2023-03-28T09:46:41.024Z,1.40
2023-03-28T09:50:23.704Z,1.63
2023-03-28T09:54:08.044Z,2.07
2023-03-28T09:58:05.771Z,1.93
2023-03-28T10:01:51.573Z,2.23
2023-03-28T10:05:38.021Z,2.30
2023-03-28T10:09:22.975Z,2.17
2023-03-28T10:13:07.012Z,1.50
2023-03-28T10:16:52.580Z,2.20
2023-03-28T10:20:37.815Z,2.27
2023-03-28T10:24:22.670Z,2.10
2023-03-28T10:28:09.034Z,1.83
2023-03-28T10:31:51.881Z,2.17
2023-03-28T10:35:35.086Z,2.20
2023-03-28T10:39:22.906Z,2.17
2023-03-28T10:43:13.180Z,2.43
2023-03-28T10:46:56.744Z,2.27
2023-03-28T10:50:43.587Z,2.63
2023-03-28T10:54:42.800Z,2.10
2023-03-28T10:58:33.003Z,2.87
2023-03-28T11:02:31.230Z,2.00
2023-03-28T11:06:18.330Z,1.80
2023-03-28T11:10:08.499Z,2.00
2023-03-28T11:13:56.805Z,2.30
2023-03-28T11:17:49.178Z,1.90
2023-03-28T11:21:37.857Z,2.30
2023-03-28T11:25:22.426Z,2.17
2023-03-28T11:29:18.395Z,1.90
2023-03-28T11:33:05.055Z,2.30
2023-03-28T11:36:51.360Z,2.80
2023-03-28T11:40:37.550Z,2.13
2023-03-28T11:44:26.472Z,2.37
2023-03-28T11:48:11.986Z,2.40
2023-03-28T11:51:59.538Z,2.20
2023-03-28T11:55:47.728Z,2.50
2023-03-28T11:59:38.573Z,2.23
2023-03-28T12:03:24.970Z,2.40
2023-03-28T12:07:12.317Z,2.80
2023-03-28T12:10:58.801Z,2.40
2023-03-28T12:14:50.944Z,2.80
2023-03-28T12:18:36.089Z,2.80
2023-03-28T12:22:22.618Z,4.33
2023-03-28T12:26:18.125Z,2.47
2023-03-28T12:30:06.762Z,2.77
2023-03-28T12:33:55.928Z,2.50
2023-03-28T12:37:43.323Z,2.30
2023-03-28T12:41:28.855Z,2.33
2023-03-28T12:45:17.070Z,2.60
2023-03-28T12:49:02.103Z,2.83
2023-03-28T12:52:46.675Z,2.30
2023-03-28T12:56:29.527Z,3.70
2023-03-28T13:00:23.682Z,2.67
2023-03-28T13:04:15.430Z,2.50
2023-03-28T13:08:01.617Z,2.47
2023-03-28T13:11:52.679Z,3.07
2023-03-28T13:15:51.107Z,3.03
2023-03-28T13:19:39.327Z,1.90
2023-03-28T13:23:29.712Z,2.30
2023-03-28T13:27:13.754Z,2.20
2023-03-28T13:31:21.071Z,2.37
2023-03-28T13:35:05.566Z,2.20
2023-03-28T13:38:50.729Z,2.40
2023-03-28T13:42:34.729Z,2.73
2023-03-28T13:46:20.626Z,2.47
2023-03-28T13:50:06.772Z,2.93
2023-03-28T13:53:49.632Z,2.30
2023-03-28T13:57:32.284Z,2.30
2023-03-28T14:01:17.328Z,2.47
2023-03-28T14:05:14.153Z,2.50
2023-03-28T14:09:00.385Z,2.57
2023-03-28T14:12:44.618Z,2.70
2023-03-28T14:16:27.226Z,2.47
2023-03-28T14:20:17.435Z,2.23
2023-03-28T14:24:01.411Z,2.47
2023-03-28T14:27:45.742Z,2.50
2023-03-28T14:31:33.112Z,2.40
2023-03-28T14:35:21.044Z,2.40
2023-03-28T14:39:13.360Z,2.70
2023-03-28T14:43:01.764Z,2.40
2023-03-28T14:46:44.480Z,2.40
2023-03-28T14:50:32.036Z,2.60
2023-03-28T14:54:16.802Z,2.90
2023-03-28T14:58:00.478Z,2.47
2023-03-28T15:01:44.547Z,3.00
2023-03-28T15:05:29.554Z,2.50
2023-03-28T15:09:27.558Z,2.37
2023-03-28T15:13:14.091Z,6.40
2023-03-28T15:16:57.097Z,2.67
2023-03-28T15:20:45.979Z,2.85
2023-03-28T15:24:29.698Z,3.10
2023-03-28T15:28:16.258Z,2.83
2023-03-28T15:32:03.489Z,3.23
2023-03-28T15:35:47.720Z,2.70
2023-03-28T15:39:31.924Z,4.43
2023-03-28T15:43:37.619Z,2.70
2023-03-28T15:47:22.580Z,2.93
2023-03-28T15:51:07.950Z,2.30
2023-03-28T15:54:53.395Z,2.30
2023-03-28T15:58:42.377Z,2.13
2023-03-28T16:02:33.620Z,2.27
2023-03-28T16:06:30.624Z,2.17
2023-03-28T16:10:16.995Z,2.77
2023-03-28T16:14:02.121Z,2.30
2023-03-28T16:17:45.233Z,2.30
2023-03-28T16:21:29.440Z,2.47
2023-03-28T16:25:12.424Z,2.40
2023-03-28T16:28:55.029Z,2.50
2023-03-28T16:32:37.718Z,2.83
2023-03-28T16:36:20.407Z,2.20
2023-03-28T16:40:04.948Z,2.40
2023-03-28T16:43:47.946Z,2.20
2023-03-28T16:47:30.894Z,2.60
2023-03-28T16:51:13.590Z,2.47
2023-03-28T16:54:56.268Z,2.90
2023-03-28T16:58:40.578Z,2.60
2023-03-28T17:02:23.268Z,2.50
2023-03-28T17:06:08.316Z,3.37
2023-03-28T17:09:51.022Z,3.20
2023-03-28T17:13:34.169Z,2.73
2023-03-28T17:17:19.218Z,2.70
2023-03-28T17:21:03.509Z,2.63
2023-03-28T17:24:46.871Z,2.00
2023-03-28T17:28:30.440Z,2.47
2023-03-28T17:32:13.401Z,2.47
2023-03-28T17:35:57.501Z,2.00
2023-03-28T17:39:40.880Z,2.40
2023-03-28T17:43:23.521Z,2.07
2023-03-28T17:47:06.317Z,2.50
2023-03-28T17:50:52.867Z,2.80
2023-03-28T17:54:36.922Z,2.60
2023-03-28T17:58:19.720Z,2.30
2023-03-28T18:02:02.973Z,2.53
2023-03-28T18:05:48.965Z,2.97
2023-03-28T18:09:31.744Z,3.80
2023-03-28T18:13:16.126Z,3.30
2023-03-28T18:16:58.728Z,3.73
2023-03-28T18:20:43.226Z,3.87
2023-03-28T18:24:26.657Z,4.70
2023-03-28T18:28:09.437Z,4.90
2023-03-28T18:31:53.470Z,4.90
2023-03-28T18:35:36.202Z,6.20
2023-03-28T18:39:18.937Z,5.63
2023-03-28T18:43:02.011Z,5.13
2023-03-28T18:46:44.711Z,4.77
2023-03-28T18:50:29.660Z,4.60
2023-03-28T18:54:12.313Z,4.17
2023-03-28T18:57:55.341Z,4.27
2023-03-28T19:01:41.163Z,4.73
2023-03-28T19:05:25.336Z,4.47
2023-03-28T19:09:09.374Z,3.93
2023-03-28T19:12:53.757Z,4.07
2023-03-28T19:16:37.150Z,3.50
2023-03-28T19:20:20.031Z,3.30
2023-03-28T19:24:02.645Z,4.00
2023-03-28T19:27:49.523Z,3.33
2023-03-28T19:31:32.421Z,3.10
2023-03-28T19:35:15.082Z,3.43
2023-03-28T19:38:57.710Z,3.20
2023-03-28T19:42:40.423Z,2.93
2023-03-28T19:46:34.746Z,2.90
2023-03-28T19:50:19.996Z,3.20
2023-03-28T19:54:02.682Z,4.00
2023-03-28T19:57:45.536Z,3.90
2023-03-28T20:01:29.580Z,4.37
2023-03-28T20:05:12.248Z,3.40
2023-03-28T20:08:55.006Z,3.83
2023-03-28T20:12:39.851Z,4.17
2023-03-28T20:16:22.674Z,4.17
2023-03-28T20:20:10.140Z,4.47
2023-03-28T20:23:53.938Z,4.20
2023-03-28T20:27:37.697Z,3.47
2023-03-28T20:31:20.501Z,3.93
2023-03-28T20:35:03.233Z,4.33
2023-03-28T20:38:47.547Z,6.00
2023-03-28T20:42:31.225Z,6.60
2023-03-28T20:46:14.486Z,4.93
2023-03-28T20:49:59.175Z,4.83
2023-03-28T20:53:45.493Z,4.10
2023-03-28T20:57:30.344Z,3.80
2023-03-28T21:01:14.142Z,3.43
2023-03-28T21:04:56.800Z,3.53
2023-03-28T21:08:39.503Z,3.40
2023-03-28T21:12:22.208Z,2.90
2023-03-28T21:16:07.287Z,4.60
2023-03-28T21:19:49.987Z,3.33
2023-03-28T21:23:32.928Z,3.20
2023-03-28T21:27:15.732Z,3.80
2023-03-28T21:30:59.603Z,4.63
2023-03-28T21:34:44.720Z,3.00
2023-03-28T21:38:27.593Z,2.60
2023-03-28T21:42:10.274Z,2.87
2023-03-28T21:45:53.857Z,3.23
2023-03-28T21:49:37.562Z,3.10
2023-03-28T21:53:22.120Z,2.90
2023-03-28T21:57:04.856Z,3.00
2023-03-28T22:00:47.925Z,2.77
2023-03-28T22:04:30.756Z,2.77
2023-03-28T22:08:13.983Z,2.67
2023-03-28T22:11:58.096Z,3.03
2023-03-28T22:15:41.154Z,2.50
2023-03-28T22:19:25.077Z,2.20
2023-03-28T22:23:08.922Z,5.47
2023-03-28T22:26:51.699Z,2.97
2023-03-28T22:30:37.325Z,2.60
2023-03-28T22:34:21.010Z,2.40
2023-03-28T22:38:04.610Z,2.20
2023-03-28T22:41:47.322Z,3.27
2023-03-28T22:45:30.099Z,2.30
2023-03-28T22:49:21.893Z,2.33
2023-03-28T22:53:04.580Z,2.60
2023-03-28T22:56:47.453Z,2.70
2023-03-28T23:00:30.099Z,3.00
2023-03-28T23:04:14.144Z,3.20
2023-03-28T23:07:57.686Z,3.33
2023-03-28T23:11:41.008Z,3.07
2023-03-28T23:15:23.664Z,2.30
2023-03-28T23:19:07.274Z,2.33
2023-03-28T23:22:53.347Z,2.10
2023-03-28T23:26:35.983Z,2.10
2023-03-28T23:30:18.806Z,2.10
2023-03-28T23:34:01.642Z,2.67
2023-03-28T23:37:44.735Z,2.30
2023-03-28T23:41:28.729Z,2.07
2023-03-28T23:45:12.129Z,2.20
2023-03-28T23:48:54.749Z,2.20
2023-03-28T23:52:37.785Z,1.83
2023-03-28T23:56:20.480Z,2.07
